Terminal Aerodrome Forecast
Issued by NWS Hastings, NE

Home | Current Version | Previous Version | Text Only | Print | Product List | Glossary On
Versions: 1 2 3 4 5 6 7 8 9 10 11 12 13 14 15 16 17 18 19 20 21 22 23 24 25 26 27 28 29 30 31
000
FTUS43 KGID 031740
TAFGRI
TAF
KGRI 031740Z 0318/0418 35027G35KT P6SM SCT030
     FM032200 35022G31KT P6SM SCT250
     FM040300 36012G17KT P6SM OVC090
     FM040600 35009KT P6SM -SN OVC040
     FM040900 32010G19KT P6SM OVC130=

USA.gov is the U.S. government's official web portal to all federal, state and local government web resources and services.